Time;durP1;ratioP1;P1;durP2;ratioP2;P2;SDS_P1;SDS_P2;PMS_P1;PMS_P2;Temp;Humidity;BMP_temperature;BMP_pressure;BME280_temperature;BME280_humidity;BME280_pressure;Samples;Min_cycle;Max_cycle;Signal;HPM_P1;HPM_P2
2021/12/28 00:07:56;;;;;;;1.55;0.80;;;8.20;93.30;;;;;;5978067;23;20020;-83
2021/12/28 00:18:33;;;;;;;1.73;1.02;;;8.20;93.30;;;;;;5752924;24;20078;-83
2021/12/28 00:28:38;;;;;;;1.83;0.77;;;8.10;93.30;;;;;;5801477;24;20065;-82
2021/12/28 00:31:24;;;;;;;2.50;0.98;;;8.00;93.30;;;;;;5787058;24;20035;-83
2021/12/28 00:34:00;;;;;;;2.03;0.90;;;8.00;93.30;;;;;;5805385;24;20014;-85
2021/12/28 00:36:43;;;;;;;1.38;0.80;;;8.00;93.30;;;;;;5820365;24;20388;-83
2021/12/28 00:39:16;;;;;;;0.60;0.60;;;7.90;93.40;;;;;;5813460;24;20532;-85
2021/12/28 00:42:31;;;;;;;2.00;0.90;;;7.90;93.40;;;;;;5802103;24;20528;-86
2021/12/28 00:44:57;;;;;;;1.10;0.70;;;7.80;93.40;;;;;;5808660;24;20046;-82
2021/12/28 00:47:23;;;;;;;0.82;0.60;;;7.80;93.50;;;;;;5788768;24;20042;-81
2021/12/28 00:49:48;;;;;;;0.77;0.47;;;7.80;93.50;;;;;;5816203;24;20024;-80
2021/12/28 00:52:14;;;;;;;0.95;0.60;;;7.80;93.50;;;;;;5927438;24;20069;-80
2021/12/28 00:54:40;;;;;;;0.55;0.55;;;7.70;93.50;;;;;;5947992;24;20082;-81
2021/12/28 00:57:06;;;;;;;1.90;0.80;;;7.70;93.60;;;;;;5950318;24;20009;-82
2021/12/28 00:59:32;;;;;;;0.82;0.73;;;7.60;93.60;;;;;;5927649;24;20017;-81
2021/12/28 01:01:58;;;;;;;1.33;0.65;;;7.60;93.70;;;;;;5952810;24;20039;-81
2021/12/28 01:04:24;;;;;;;1.10;0.80;;;7.60;93.70;;;;;;5978164;24;20044;-81
2021/12/28 01:06:50;;;;;;;0.60;0.50;;;7.50;93.70;;;;;;5909476;24;20119;-82
2021/12/28 01:09:16;;;;;;;2.08;0.93;;;7.40;93.60;;;;;;6027298;23;20028;-81
2021/12/28 01:11:42;;;;;;;0.95;0.73;;;7.40;93.70;;;;;;6044702;23;19998;-81
2021/12/28 01:14:08;;;;;;;1.83;0.80;;;7.50;93.70;;;;;;6069658;23;20501;-81
2021/12/28 01:17:18;;;;;;;1.52;0.90;;;7.40;93.70;;;;;;6182325;23;20054;-83
2021/12/28 01:19:48;;;;;;;1.00;0.60;;;7.30;93.70;;;;;;6097370;23;20072;-81
2021/12/28 01:22:14;;;;;;;0.87;0.60;;;7.40;93.70;;;;;;6071661;23;20089;-79
2021/12/28 01:24:44;;;;;;;0.77;0.52;;;7.30;93.70;;;;;;6044173;23;20643;-80
2021/12/28 01:27:10;;;;;;;2.13;0.90;;;7.40;93.70;;;;;;6021864;23;20022;-80
2021/12/28 01:29:36;;;;;;;1.75;0.73;;;7.30;93.70;;;;;;6043780;23;20073;-80
2021/12/28 01:32:02;;;;;;;2.13;0.90;;;7.30;93.70;;;;;;6044072;23;20074;-81
2021/12/28 01:41:44;;;;;;;1.10;0.63;;;7.20;93.80;;;;;;5998350;23;20471;-83
2021/12/28 01:55:34;;;;;;;0.70;0.57;;;7.40;93.60;;;;;;5945742;23;20028;-84
2021/12/28 01:58:32;;;;;;;0.47;0.45;;;7.40;93.60;;;;;;5998031;23;20072;-85
2021/12/28 02:01:14;;;;;;;1.15;0.65;;;7.40;93.50;;;;;;5908232;23;20458;-85
2021/12/28 02:07:42;;;;;;;1.20;0.50;;;7.40;93.60;;;;;;5908079;23;20032;-83
2021/12/28 02:10:10;;;;;;;0.75;0.40;;;7.40;93.50;;;;;;5967685;23;20021;-84
2021/12/28 02:12:36;;;;;;;1.05;0.63;;;7.40;93.50;;;;;;5894594;23;20032;-83
2021/12/28 02:15:17;;;;;;;1.05;0.30;;;7.40;93.60;;;;;;5889890;23;20013;-83
2021/12/28 02:22:19;;;;;;;1.10;0.57;;;7.40;93.60;;;;;;5961143;23;20339;-82
2021/12/28 02:27:47;;;;;;;0.80;0.50;;;7.40;93.50;;;;;;6019914;23;20028;-82
2021/12/28 02:30:18;;;;;;;0.70;0.50;;;7.40;93.50;;;;;;5931981;23;20095;-82
2021/12/28 02:32:46;;;;;;;0.52;0.43;;;7.50;93.60;;;;;;5954611;23;20011;-82
2021/12/28 02:35:17;;;;;;;0.52;0.47;;;7.40;93.50;;;;;;5954924;23;20027;-82
2021/12/28 02:37:43;;;;;;;0.68;0.30;;;7.40;93.80;;;;;;5978441;23;20572;-82
2021/12/28 02:40:13;;;;;;;0.82;0.57;;;7.40;93.50;;;;;;5955129;23;20019;-82
2021/12/28 02:42:39;;;;;;;1.10;0.60;;;7.40;93.60;;;;;;5955283;23;20007;-82
2021/12/28 02:45:12;;;;;;;1.13;0.70;;;7.40;93.80;;;;;;5954725;23;20039;-82
2021/12/28 02:47:40;;;;;;;2.65;0.60;;;7.40;93.60;;;;;;5977753;23;20042;-82
2021/12/28 02:50:11;;;;;;;1.48;0.60;;;7.40;93.60;;;;;;5955125;23;20016;-82
2021/12/28 02:52:37;;;;;;;1.33;0.75;;;7.30;93.60;;;;;;5977876;23;20211;-82
2021/12/28 02:55:06;;;;;;;0.63;0.60;;;7.30;93.60;;;;;;5977890;23;20062;-82
2021/12/28 02:57:33;;;;;;;1.40;0.57;;;7.30;93.70;;;;;;5955007;23;20016;-82
2021/12/28 02:59:59;;;;;;;1.15;0.68;;;7.20;93.60;;;;;;5973802;23;20383;-82
2021/12/28 03:02:25;;;;;;;0.70;0.45;;;7.30;93.70;;;;;;6072700;23;20029;-82
2021/12/28 03:04:51;;;;;;;1.70;0.50;;;7.20;93.70;;;;;;6117336;23;20434;-82
2021/12/28 03:07:17;;;;;;;2.40;0.77;;;7.20;93.70;;;;;;6092813;23;20445;-82
2021/12/28 03:09:42;;;;;;;0.57;0.45;;;7.20;93.70;;;;;;6117235;23;20021;-82
2021/12/28 03:12:09;;;;;;;1.30;0.80;;;7.20;93.80;;;;;;6068478;23;20513;-82
2021/12/28 03:14:36;;;;;;;1.23;0.57;;;7.10;93.80;;;;;;6068745;23;20085;-82
2021/12/28 03:17:03;;;;;;;1.23;0.70;;;7.10;93.80;;;;;;6068546;23;20006;-81
2021/12/28 03:19:29;;;;;;;0.75;0.45;;;7.20;93.80;;;;;;6068518;23;20010;-83
2021/12/28 03:21:57;;;;;;;0.73;0.50;;;7.10;93.80;;;;;;6117436;23;20071;-82
2021/12/28 03:24:23;;;;;;;1.00;0.60;;;7.10;93.80;;;;;;6118378;23;20401;-82
2021/12/28 03:26:49;;;;;;;0.77;0.52;;;7.10;93.80;;;;;;6093011;23;20104;-82
2021/12/28 03:29:15;;;;;;;0.90;0.65;;;7.10;93.80;;;;;;6118789;23;20082;-81
2021/12/28 03:31:40;;;;;;;1.38;0.68;;;7.10;93.80;;;;;;6119936;23;20006;-81
2021/12/28 03:34:09;;;;;;;0.88;0.70;;;7.00;93.80;;;;;;6094615;23;20052;-81
2021/12/28 03:36:35;;;;;;;1.83;0.70;;;7.00;93.80;;;;;;6118805;23;20373;-81
2021/12/28 03:39:03;;;;;;;1.90;0.60;;;7.00;93.80;;;;;;6094593;23;20013;-82
2021/12/28 03:41:30;;;;;;;1.00;0.60;;;7.00;93.80;;;;;;6095136;23;20025;-82
2021/12/28 03:43:57;;;;;;;1.55;0.68;;;6.90;93.80;;;;;;6118596;23;20029;-82
2021/12/28 03:46:25;;;;;;;2.60;0.52;;;6.80;93.90;;;;;;6094629;23;20060;-82
2021/12/28 03:48:51;;;;;;;0.80;0.50;;;6.90;93.90;;;;;;6070206;23;20010;-82
2021/12/28 03:51:17;;;;;;;1.33;0.75;;;6.80;93.90;;;;;;6094122;23;20434;-82
2021/12/28 03:53:44;;;;;;;0.77;0.50;;;6.90;93.90;;;;;;6118547;23;20076;-82
2021/12/28 03:56:11;;;;;;;0.80;0.40;;;6.80;93.90;;;;;;6094867;23;20034;-82
2021/12/28 03:58:39;;;;;;;0.85;0.50;;;6.80;93.90;;;;;;6094794;23;20002;-82
2021/12/28 04:01:06;;;;;;;0.60;0.50;;;6.80;93.90;;;;;;6070598;23;20006;-82
2021/12/28 04:03:32;;;;;;;1.27;0.75;;;6.80;93.90;;;;;;6070236;23;20577;-82
2021/12/28 04:05:59;;;;;;;0.82;0.63;;;6.80;93.90;;;;;;6094287;23;20333;-82
2021/12/28 04:08:27;;;;;;;0.80;0.65;;;6.80;93.90;;;;;;6117532;23;20068;-82
2021/12/28 04:11:00;;;;;;;0.73;0.50;;;6.90;93.90;;;;;;6094350;23;20037;-81
2021/12/28 04:13:26;;;;;;;1.02;0.60;;;6.80;93.90;;;;;;6095910;23;20109;-82
2021/12/28 04:15:52;;;;;;;1.75;0.80;;;7.00;93.90;;;;;;6119177;23;20013;-82
2021/12/28 04:18:19;;;;;;;0.65;0.40;;;6.90;93.90;;;;;;6121358;23;20014;-82
2021/12/28 04:20:45;;;;;;;1.65;0.57;;;6.90;93.90;;;;;;6094397;23;20010;-82
2021/12/28 04:23:10;;;;;;;0.68;0.68;;;6.90;93.80;;;;;;6117382;23;20359;-82
2021/12/28 04:25:36;;;;;;;0.60;0.60;;;6.90;93.80;;;;;;6120632;23;20002;-82
2021/12/28 04:28:02;;;;;;;0.85;0.50;;;6.90;93.80;;;;;;6091327;23;20010;-81
2021/12/28 04:30:28;;;;;;;1.10;0.70;;;7.00;93.80;;;;;;6117933;23;20041;-81
2021/12/28 04:32:54;;;;;;;1.17;0.70;;;6.90;93.80;;;;;;6116945;23;19999;-81
2021/12/28 04:35:20;;;;;;;1.63;0.50;;;6.90;93.80;;;;;;6115995;23;20063;-81
2021/12/28 04:37:46;;;;;;;2.72;0.65;;;7.00;93.80;;;;;;6069524;23;19998;-81
2021/12/28 04:40:12;;;;;;;0.70;0.50;;;7.00;93.80;;;;;;6117064;23;20573;-81
2021/12/28 04:42:40;;;;;;;0.82;0.63;;;7.00;93.80;;;;;;6116250;23;20059;-81
2021/12/28 04:45:09;;;;;;;0.70;0.55;;;7.00;93.80;;;;;;6119997;23;20010;-81
2021/12/28 04:47:35;;;;;;;1.35;0.60;;;7.00;93.80;;;;;;6116035;23;20020;-81
2021/12/28 04:50:01;;;;;;;0.95;0.50;;;7.00;93.80;;;;;;6119434;23;20434;-81
2021/12/28 04:52:29;;;;;;;0.95;0.60;;;7.00;93.80;;;;;;6116706;23;20006;-81
2021/12/28 04:54:55;;;;;;;0.50;0.35;;;7.10;93.80;;;;;;6069216;23;20457;-81
2021/12/28 04:57:21;;;;;;;0.55;0.50;;;7.10;93.70;;;;;;6091549;23;20010;-81
2021/12/28 04:59:47;;;;;;;1.08;0.60;;;7.00;93.70;;;;;;6093385;23;20041;-81
2021/12/28 05:02:13;;;;;;;0.40;0.40;;;7.00;93.70;;;;;;6068249;23;20017;-81
2021/12/28 05:04:38;;;;;;;0.65;0.40;;;7.00;93.70;;;;;;6091884;23;20052;-81
2021/12/28 05:07:04;;;;;;;0.57;0.40;;;7.00;93.70;;;;;;6093601;23;20068;-81
2021/12/28 05:09:30;;;;;;;0.32;0.30;;;7.10;93.70;;;;;;6093280;23;20054;-81
2021/12/28 05:11:56;;;;;;;2.40;0.55;;;7.10;93.70;;;;;;6094068;23;20014;-82
2021/12/28 05:14:21;;;;;;;1.67;0.65;;;7.30;93.80;;;;;;6119611;23;20010;-82
2021/12/28 05:16:48;;;;;;;0.98;0.60;;;7.10;93.70;;;;;;6118150;23;20013;-82
2021/12/28 05:19:15;;;;;;;1.13;0.57;;;7.10;93.70;;;;;;6090624;23;20077;-81
2021/12/28 05:21:41;;;;;;;1.08;0.57;;;7.10;93.70;;;;;;6115792;23;20058;-81
2021/12/28 05:24:07;;;;;;;0.65;0.40;;;7.20;93.70;;;;;;6093904;23;20006;-82
2021/12/28 05:26:33;;;;;;;0.93;0.50;;;7.20;93.70;;;;;;6117320;23;20037;-81
2021/12/28 05:28:59;;;;;;;1.33;0.73;;;7.30;93.70;;;;;;6069205;23;20010;-81
2021/12/28 05:31:27;;;;;;;1.25;0.50;;;7.30;93.60;;;;;;6117762;23;20009;-81
2021/12/28 05:33:53;;;;;;;2.00;0.60;;;7.30;93.60;;;;;;6115285;23;20446;-81
2021/12/28 05:36:21;;;;;;;1.17;0.40;;;7.40;93.60;;;;;;6094493;23;20803;-81
2021/12/28 05:38:46;;;;;;;1.27;0.47;;;7.40;93.60;;;;;;6117770;23;20104;-81
2021/12/28 05:41:12;;;;;;;0.80;0.50;;;7.40;93.60;;;;;;6069367;23;20017;-81
2021/12/28 05:43:38;;;;;;;0.60;0.50;;;7.40;93.60;;;;;;6093679;23;20060;-81
2021/12/28 05:46:04;;;;;;;2.20;0.80;;;7.40;93.60;;;;;;6093631;23;20021;-81
2021/12/28 05:48:30;;;;;;;1.88;0.50;;;7.50;93.60;;;;;;6093646;23;20055;-81
2021/12/28 05:50:55;;;;;;;1.17;0.57;;;7.50;93.60;;;;;;6119422;23;20010;-81
2021/12/28 05:53:21;;;;;;;0.80;0.50;;;7.40;93.60;;;;;;6117196;23;20025;-81
2021/12/28 05:55:47;;;;;;;1.23;0.60;;;7.50;93.60;;;;;;6116973;23;20091;-81
2021/12/28 05:58:13;;;;;;;2.08;0.70;;;7.50;93.60;;;;;;6069917;23;20495;-81
2021/12/28 06:00:39;;;;;;;1.85;0.63;;;7.50;93.60;;;;;;6117368;23;20067;-81
2021/12/28 06:03:06;;;;;;;1.20;0.40;;;7.40;93.60;;;;;;6093515;23;20018;-81
2021/12/28 06:05:32;;;;;;;2.00;0.60;;;7.50;93.60;;;;;;6093998;23;20010;-83
2021/12/28 06:07:57;;;;;;;1.73;0.52;;;7.50;93.60;;;;;;6069397;23;20078;-82
2021/12/28 06:10:23;;;;;;;1.10;0.32;;;7.50;93.60;;;;;;6093551;23;20022;-82
2021/12/28 06:12:49;;;;;;;0.80;0.60;;;7.50;93.60;;;;;;6069119;23;20005;-81
2021/12/28 06:15:15;;;;;;;0.68;0.40;;;7.50;93.60;;;;;;6117935;23;20006;-81
2021/12/28 06:17:42;;;;;;;1.13;0.40;;;7.50;93.60;;;;;;6093425;23;20488;-81
2021/12/28 06:20:08;;;;;;;1.52;0.50;;;7.50;93.60;;;;;;6116312;23;20014;-81
2021/12/28 06:22:34;;;;;;;0.40;0.38;;;7.60;93.60;;;;;;6117914;23;20006;-81
2021/12/28 06:25:00;;;;;;;0.65;0.40;;;7.60;93.60;;;;;;6093406;23;20144;-81
2021/12/28 06:27:25;;;;;;;1.23;0.45;;;7.60;93.60;;;;;;6068923;23;20030;-82
2021/12/28 06:29:51;;;;;;;1.77;0.50;;;7.60;93.60;;;;;;6116888;23;20014;-82
2021/12/28 06:32:17;;;;;;;2.15;0.63;;;7.60;93.60;;;;;;6117157;23;20457;-82
2021/12/28 06:34:43;;;;;;;1.05;0.50;;;7.60;93.60;;;;;;6093307;23;20006;-82
2021/12/28 06:37:09;;;;;;;0.55;0.38;;;7.70;93.60;;;;;;6117369;23;20053;-82
2021/12/28 06:39:35;;;;;;;1.40;0.60;;;7.70;93.60;;;;;;6068874;23;20013;-81
2021/12/28 06:42:01;;;;;;;0.60;0.43;;;7.70;93.60;;;;;;6092972;23;20014;-82
2021/12/28 06:44:26;;;;;;;0.50;0.40;;;7.70;93.60;;;;;;6093573;23;20014;-82
2021/12/28 06:46:52;;;;;;;1.50;0.43;;;7.80;93.60;;;;;;6116956;23;20341;-81
2021/12/28 06:49:18;;;;;;;1.35;0.50;;;7.80;93.60;;;;;;6093202;23;20013;-82
2021/12/28 06:51:44;;;;;;;0.40;0.40;;;7.80;93.50;;;;;;6093328;23;20450;-81
2021/12/28 06:54:11;;;;;;;1.17;0.60;;;7.80;93.50;;;;;;6093365;23;20040;-81
2021/12/28 06:56:36;;;;;;;1.45;0.60;;;7.80;93.50;;;;;;6093016;23;20060;-82
2021/12/28 06:59:03;;;;;;;1.92;0.50;;;7.80;93.50;;;;;;6093409;23;20014;-82
2021/12/28 07:01:28;;;;;;;1.10;0.40;;;7.90;93.60;;;;;;6117166;23;20071;-82
2021/12/28 07:03:54;;;;;;;2.53;0.90;;;7.90;93.60;;;;;;6116922;23;20010;-82
2021/12/28 07:06:23;;;;;;;2.97;0.52;;;7.90;93.60;;;;;;6093991;23;20002;-82
2021/12/28 07:08:49;;;;;;;1.20;0.50;;;7.90;93.50;;;;;;6071896;23;20053;-82
2021/12/28 07:11:16;;;;;;;0.73;0.30;;;7.90;93.50;;;;;;6118850;23;20002;-82
2021/12/28 07:13:42;;;;;;;2.65;0.45;;;8.00;93.60;;;;;;6119400;23;20029;-82
2021/12/28 07:16:07;;;;;;;1.17;0.50;;;8.00;93.50;;;;;;6119632;23;19998;-82
2021/12/28 07:18:33;;;;;;;0.47;0.20;;;8.00;93.50;;;;;;6070637;23;20438;-82
2021/12/28 07:21:00;;;;;;;0.32;0.20;;;8.00;93.50;;;;;;6094571;23;20028;-82
2021/12/28 07:23:26;;;;;;;1.75;0.40;;;8.00;93.50;;;;;;6070883;23;20041;-82
2021/12/28 07:25:56;;;;;;;2.25;0.35;;;8.10;93.60;;;;;;6070609;23;20064;-82
2021/12/28 07:28:23;;;;;;;0.63;0.30;;;8.10;93.60;;;;;;6094753;23;20092;-82
2021/12/28 07:30:49;;;;;;;1.45;0.50;;;8.10;93.50;;;;;;6094854;23;20065;-82
2021/12/28 07:33:15;;;;;;;0.60;0.30;;;8.10;93.50;;;;;;6119041;23;20044;-82
2021/12/28 07:35:41;;;;;;;1.23;0.47;;;8.10;93.50;;;;;;6120427;23;20067;-83
2021/12/28 07:38:06;;;;;;;0.65;0.60;;;8.10;93.60;;;;;;6116609;23;20038;-82
2021/12/28 07:40:32;;;;;;;0.43;0.40;;;8.10;93.50;;;;;;6094304;23;20010;-82
2021/12/28 07:42:58;;;;;;;0.35;0.20;;;8.10;93.50;;;;;;6120804;23;20124;-82
2021/12/28 07:45:24;;;;;;;1.15;0.40;;;8.20;93.60;;;;;;6092922;23;20044;-82
2021/12/28 07:47:50;;;;;;;1.83;0.57;;;8.20;93.60;;;;;;6067844;23;20013;-82
2021/12/28 07:50:18;;;;;;;0.98;0.32;;;8.10;93.50;;;;;;6069339;23;20021;-82
2021/12/28 07:52:45;;;;;;;0.63;0.32;;;8.20;93.60;;;;;;6117888;23;20034;-82
2021/12/28 07:55:12;;;;;;;0.32;0.25;;;8.20;93.60;;;;;;6093017;23;20081;-82
2021/12/28 07:57:39;;;;;;;1.15;0.32;;;8.20;93.60;;;;;;6120597;23;20002;-82
2021/12/28 08:00:09;;;;;;;0.30;0.30;;;8.20;93.60;;;;;;6094446;23;20029;-82
2021/12/28 08:02:34;;;;;;;1.00;0.40;;;8.20;93.60;;;;;;6119694;23;20014;-85
2021/12/28 08:05:00;;;;;;;0.68;0.52;;;8.30;93.60;;;;;;6095314;23;20032;-80
2021/12/28 08:07:26;;;;;;;0.35;0.32;;;8.30;93.60;;;;;;6068377;23;20002;-80
2021/12/28 08:09:51;;;;;;;1.42;0.40;;;8.40;93.60;;;;;;6071030;23;20010;-80
2021/12/28 08:12:17;;;;;;;0.40;0.30;;;8.30;93.70;;;;;;6093839;23;20208;-80
2021/12/28 08:14:43;;;;;;;2.65;0.60;;;8.30;93.60;;;;;;6096090;23;20018;-80
2021/12/28 08:17:08;;;;;;;2.50;0.52;;;8.30;93.60;;;;;;6093608;23;20006;-80
2021/12/28 08:19:35;;;;;;;0.98;0.50;;;8.40;93.60;;;;;;6119919;23;20040;-80
2021/12/28 08:22:00;;;;;;;2.15;0.57;;;8.40;93.60;;;;;;6119675;23;20010;-80
2021/12/28 08:24:26;;;;;;;0.90;0.47;;;8.40;93.60;;;;;;6118171;23;20037;-80
2021/12/28 08:26:53;;;;;;;0.75;0.40;;;8.40;93.60;;;;;;6122193;23;20029;-80
2021/12/28 08:29:19;;;;;;;0.77;0.40;;;8.40;93.60;;;;;;6096438;23;20030;-80
2021/12/28 08:31:44;;;;;;;1.58;0.50;;;8.50;93.60;;;;;;6071156;23;20010;-80
2021/12/28 08:34:10;;;;;;;0.75;0.30;;;8.50;93.60;;;;;;6120132;23;20037;-80
2021/12/28 08:36:36;;;;;;;1.17;0.50;;;8.50;93.60;;;;;;6125375;23;20022;-80
2021/12/28 08:39:02;;;;;;;0.70;0.20;;;8.60;93.60;;;;;;6098901;23;20030;-81
2021/12/28 08:41:28;;;;;;;1.15;0.52;;;8.60;93.50;;;;;;6123241;23;20451;-80
2021/12/28 08:43:54;;;;;;;1.02;0.40;;;8.60;93.50;;;;;;6097388;23;20014;-80
2021/12/28 08:46:20;;;;;;;0.63;0.47;;;8.60;93.50;;;;;;6120082;23;20013;-81
2021/12/28 08:48:45;;;;;;;1.13;0.40;;;8.70;93.50;;;;;;6123439;23;20014;-79
2021/12/28 08:51:14;;;;;;;0.82;0.35;;;8.70;93.50;;;;;;6137543;23;19998;-80
2021/12/28 08:53:39;;;;;;;1.27;0.50;;;8.70;93.50;;;;;;6122563;23;20422;-80
2021/12/28 08:56:05;;;;;;;1.00;0.43;;;8.90;93.50;;;;;;6074309;23;20013;-80
2021/12/28 08:58:31;;;;;;;1.65;0.60;;;8.80;93.50;;;;;;6097934;23;20036;-80
2021/12/28 09:00:57;;;;;;;0.50;0.30;;;8.80;93.50;;;;;;6076934;23;20085;-80
2021/12/28 09:03:23;;;;;;;0.40;0.38;;;8.80;93.50;;;;;;6073926;23;20042;-80
2021/12/28 09:05:49;;;;;;;1.35;0.50;;;8.80;93.50;;;;;;6094999;23;20006;-82
2021/12/28 09:08:17;;;;;;;1.00;0.40;;;8.80;93.50;;;;;;6093729;23;20033;-82
2021/12/28 09:10:43;;;;;;;2.03;0.63;;;8.90;93.50;;;;;;6071809;23;20446;-82
2021/12/28 09:13:11;;;;;;;1.25;0.90;;;8.90;93.50;;;;;;6092657;23;20355;-83
2021/12/28 09:15:37;;;;;;;4.10;0.80;;;9.00;93.40;;;;;;6068490;23;20006;-81
2021/12/28 09:18:06;;;;;;;1.02;0.80;;;9.00;93.40;;;;;;6115872;23;20010;-81
2021/12/28 09:20:32;;;;;;;0.70;0.60;;;9.10;93.40;;;;;;6067365;23;20013;-82
2021/12/28 09:22:58;;;;;;;1.20;0.50;;;9.20;93.40;;;;;;6119692;23;20017;-82
2021/12/28 09:25:24;;;;;;;2.25;0.65;;;9.10;93.30;;;;;;6117596;23;20014;-82
2021/12/28 09:27:51;;;;;;;1.70;0.77;;;9.30;93.40;;;;;;6092128;23;20061;-83
2021/12/28 09:30:17;;;;;;;0.45;0.40;;;9.20;93.40;;;;;;6061973;23;20014;-82
2021/12/28 09:32:44;;;;;;;0.80;0.52;;;9.20;93.40;;;;;;6120702;23;20449;-81
2021/12/28 09:35:11;;;;;;;2.42;0.70;;;9.20;93.40;;;;;;6096958;23;20009;-82
2021/12/28 09:37:37;;;;;;;0.50;0.50;;;9.20;93.40;;;;;;6072189;23;20035;-82
2021/12/28 09:40:06;;;;;;;0.28;0.28;;;9.20;93.40;;;;;;6121213;23;20006;-82
2021/12/28 09:42:33;;;;;;;0.52;0.52;;;9.20;93.40;;;;;;6098211;23;20421;-82
2021/12/28 09:44:59;;;;;;;1.20;0.70;;;9.10;93.40;;;;;;6035565;23;20467;-82
2021/12/28 09:47:25;;;;;;;0.80;0.50;;;9.20;93.50;;;;;;6017525;23;20018;-82
2021/12/28 09:49:51;;;;;;;1.20;0.65;;;9.30;93.50;;;;;;6068801;23;20303;-82
2021/12/28 09:52:17;;;;;;;0.77;0.60;;;9.20;93.50;;;;;;6059382;23;20014;-84
2021/12/28 09:54:45;;;;;;;1.45;0.75;;;9.30;93.50;;;;;;6020072;23;20023;-81
2021/12/28 09:57:19;;;;;;;1.48;0.70;;;9.20;93.40;;;;;;6082170;23;20011;-79
2021/12/28 09:59:46;;;;;;;1.92;0.60;;;9.30;93.50;;;;;;5980299;23;20107;-79
2021/12/28 10:02:13;;;;;;;1.58;0.70;;;9.40;93.50;;;;;;6002185;23;20205;-79
2021/12/28 10:05:04;;;;;;;1.77;0.80;;;9.50;93.50;;;;;;6000385;23;20024;-81
2021/12/28 10:08:03;;;;;;;0.65;0.57;;;9.40;93.50;;;;;;5998658;23;20094;-82
2021/12/28 10:14:10;;;;;;;1.25;0.80;;;9.50;93.50;;;;;;5963933;24;20464;-78
2021/12/28 10:16:52;;;;;;;0.82;0.68;;;9.50;93.50;;;;;;5942850;24;20017;-80
2021/12/28 10:19:40;;;;;;;1.70;0.60;;;9.50;93.50;;;;;;5975714;23;20016;-80
2021/12/28 10:22:27;;;;;;;1.08;0.65;;;9.50;93.50;;;;;;5928195;24;20013;-79
2021/12/28 10:24:57;;;;;;;0.80;0.50;;;9.50;93.50;;;;;;5944904;24;20013;-79
2021/12/28 10:27:25;;;;;;;1.80;0.88;;;9.60;93.50;;;;;;5916461;24;20100;-79
2021/12/28 10:29:53;;;;;;;0.82;0.60;;;9.60;93.50;;;;;;5897850;24;20026;-79
2021/12/28 10:32:28;;;;;;;1.23;0.50;;;9.60;93.50;;;;;;5895996;24;20102;-79
2021/12/28 10:34:56;;;;;;;0.50;0.50;;;9.70;93.50;;;;;;5908578;24;20021;-80
2021/12/28 10:37:25;;;;;;;1.70;0.70;;;9.70;93.50;;;;;;5927915;23;20021;-80
2021/12/28 10:39:54;;;;;;;1.10;0.70;;;9.70;93.50;;;;;;5982609;23;20023;-80
2021/12/28 10:42:41;;;;;;;0.93;0.80;;;9.80;93.50;;;;;;6063960;23;20410;-80
2021/12/28 10:45:10;;;;;;;0.60;0.60;;;9.80;93.50;;;;;;6091586;23;20113;-80
2021/12/28 10:47:36;;;;;;;0.65;0.65;;;9.80;93.50;;;;;;6092650;23;20121;-80
2021/12/28 10:50:23;;;;;;;2.20;0.85;;;9.80;93.50;;;;;;6100521;23;20029;-80
2021/12/28 10:52:52;;;;;;;1.13;0.68;;;9.80;93.50;;;;;;6097065;23;20014;-80
2021/12/28 10:55:21;;;;;;;1.85;0.82;;;9.80;93.50;;;;;;6093887;23;20095;-79
2021/12/28 10:57:47;;;;;;;0.60;0.60;;;9.80;93.50;;;;;;6069255;23;20010;-79
2021/12/28 11:00:31;;;;;;;1.10;0.60;;;9.80;93.50;;;;;;6093014;23;20020;-80
2021/12/28 11:03:18;;;;;;;0.88;0.60;;;9.90;93.60;;;;;;6127043;23;20030;-80
2021/12/28 11:05:46;;;;;;;0.85;0.70;;;9.90;93.60;;;;;;6079172;23;20013;-79
2021/12/28 11:08:12;;;;;;;0.70;0.55;;;9.90;93.60;;;;;;6117421;23;20010;-78
2021/12/28 11:10:48;;;;;;;1.00;0.45;;;9.80;93.60;;;;;;6076354;23;20098;-77
2021/12/28 11:13:17;;;;;;;1.17;0.50;;;9.90;93.60;;;;;;6131566;23;20056;-77
2021/12/28 11:15:46;;;;;;;0.98;0.50;;;9.90;93.60;;;;;;6140346;23;20009;-77
2021/12/28 11:18:33;;;;;;;0.40;0.40;;;9.90;93.60;;;;;;6126084;23;20064;-77
2021/12/28 11:21:09;;;;;;;0.50;0.50;;;9.90;93.70;;;;;;6123775;23;20306;-76
2021/12/28 11:23:35;;;;;;;0.70;0.68;;;9.90;93.60;;;;;;6126525;23;20013;-76
2021/12/28 11:26:09;;;;;;;0.95;0.70;;;10.00;93.70;;;;;;6127862;23;20059;-77
2021/12/28 11:28:36;;;;;;;0.60;0.60;;;10.00;93.70;;;;;;6129711;23;20071;-77
2021/12/28 11:31:15;;;;;;;1.42;0.70;;;10.00;93.70;;;;;;6097944;23;20021;-77
2021/12/28 11:33:53;;;;;;;0.93;0.70;;;10.00;94.00;;;;;;6124823;23;20075;-76
2021/12/28 11:36:22;;;;;;;1.10;1.00;;;10.00;93.70;;;;;;6125618;23;20006;-77
2021/12/28 11:38:48;;;;;;;0.90;0.55;;;10.00;93.60;;;;;;6122270;23;20122;-77
2021/12/28 11:41:15;;;;;;;0.88;0.70;;;10.10;93.70;;;;;;6123668;23;20006;-77
2021/12/28 11:43:42;;;;;;;1.30;0.90;;;10.10;93.70;;;;;;6126146;23;20040;-78
2021/12/28 11:46:09;;;;;;;0.77;0.73;;;10.10;93.70;;;;;;6124022;23;20089;-77
2021/12/28 11:48:36;;;;;;;1.20;0.90;;;10.10;93.70;;;;;;6123434;23;20068;-77
2021/12/28 11:51:02;;;;;;;1.25;1.00;;;10.10;93.70;;;;;;6097250;23;20154;-77
2021/12/28 11:53:29;;;;;;;1.20;0.95;;;10.20;93.60;;;;;;6122164;23;20014;-77
2021/12/28 11:55:58;;;;;;;1.23;0.85;;;10.20;93.60;;;;;;6097747;23;20045;-76
2021/12/28 11:58:54;;;;;;;1.38;1.10;;;10.10;93.60;;;;;;6129542;23;20065;-76
2021/12/28 12:01:40;;;;;;;1.20;0.90;;;10.20;93.60;;;;;;6146293;23;20017;-76
2021/12/28 12:04:45;;;;;;;1.00;0.75;;;10.20;93.60;;;;;;6145501;23;20006;-77
2021/12/28 12:07:19;;;;;;;0.95;0.75;;;10.20;93.70;;;;;;6143568;23;19994;-78
2021/12/28 12:10:07;;;;;;;1.17;0.80;;;10.10;93.60;;;;;;6140212;23;20010;-77
2021/12/28 12:12:46;;;;;;;0.88;0.70;;;10.20;93.70;;;;;;6142869;23;20022;-78
2021/12/28 12:15:13;;;;;;;0.85;0.70;;;10.10;93.70;;;;;;6114409;23;20017;-78
2021/12/28 12:17:43;;;;;;;0.73;0.63;;;10.00;93.70;;;;;;6141621;23;20010;-78
2021/12/28 12:20:24;;;;;;;0.88;0.70;;;10.20;93.80;;;;;;6114935;23;20010;-78
2021/12/28 12:22:55;;;;;;;2.30;0.93;;;10.10;93.80;;;;;;6118859;23;20016;-77
2021/12/28 12:25:32;;;;;;;1.10;0.70;;;10.10;93.80;;;;;;6140362;23;20030;-77
2021/12/28 12:28:02;;;;;;;0.80;0.80;;;10.10;93.80;;;;;;6138041;23;20051;-79
2021/12/28 12:30:50;;;;;;;1.60;0.90;;;10.20;93.80;;;;;;6123953;23;20322;-78
2021/12/28 12:33:17;;;;;;;1.05;0.80;;;10.20;93.70;;;;;;6142734;23;20677;-77
2021/12/28 12:35:55;;;;;;;1.70;1.17;;;10.20;93.70;;;;;;6144452;23;20018;-78
2021/12/28 12:38:38;;;;;;;1.42;1.20;;;10.30;93.70;;;;;;6139034;23;20006;-81
2021/12/28 12:41:25;;;;;;;1.80;1.30;;;10.20;93.60;;;;;;6097792;23;20022;-82
2021/12/28 12:43:57;;;;;;;3.63;1.50;;;10.20;93.60;;;;;;6129537;23;20138;-80
2021/12/28 12:46:46;;;;;;;3.08;1.30;;;10.10;93.70;;;;;;6116687;23;20100;-84
2021/12/28 12:49:32;;;;;;;3.28;1.50;;;10.00;93.70;;;;;;6089390;23;20356;-83
2021/12/28 12:52:18;;;;;;;2.42;1.20;;;10.00;93.80;;;;;;6005048;23;20054;-83
2021/12/28 13:09:29;;;;;;;4.00;1.38;;;9.90;93.70;;;;;;5789392;24;20746;-82
2021/12/28 13:12:25;;;;;;;5.75;1.60;;;9.80;93.70;;;;;;5778116;24;20046;-83
2021/12/28 13:14:57;;;;;;;6.22;1.83;;;9.80;93.70;;;;;;5813022;24;20018;-81
2021/12/28 13:17:42;;;;;;;3.85;1.33;;;9.70;93.80;;;;;;5819914;24;20033;-80
2021/12/28 13:20:29;;;;;;;5.43;1.38;;;9.70;93.80;;;;;;5823239;24;20027;-86
2021/12/28 13:33:58;;;;;;;3.80;1.45;;;9.80;93.80;;;;;;5777493;24;20025;-85
2021/12/28 13:44:46;;;;;;;4.85;1.30;;;10.10;93.50;;;;;;5840411;24;20086;-84
2021/12/28 13:58:53;;;;;;;6.00;1.67;;;10.30;93.40;;;;;;5849454;24;20087;-84
2021/12/28 14:02:05;;;;;;;7.63;1.70;;;10.20;93.30;;;;;;5865931;24;20029;-84
2021/12/28 14:07:38;;;;;;;5.53;1.50;;;10.20;93.20;;;;;;5898166;24;20022;-82
2021/12/28 14:13:20;;;;;;;3.63;1.35;;;10.10;93.20;;;;;;5907150;24;20017;-81
2021/12/28 14:15:54;;;;;;;6.95;1.60;;;10.20;93.20;;;;;;5927925;24;20017;-81
2021/12/28 14:18:25;;;;;;;7.22;1.58;;;10.20;93.10;;;;;;5903832;24;20021;-83
2021/12/28 14:20:54;;;;;;;4.17;1.30;;;10.20;93.10;;;;;;5870969;24;20025;-82
2021/12/28 14:23:33;;;;;;;5.22;1.40;;;10.20;93.10;;;;;;5929294;24;20317;-84
2021/12/28 14:26:13;;;;;;;11.80;1.85;;;10.10;93.10;;;;;;5906788;24;20021;-83
2021/12/28 14:29:05;;;;;;;5.57;1.70;;;10.10;93.10;;;;;;5925257;24;20039;-85
2021/12/28 14:31:40;;;;;;;6.55;1.77;;;10.00;93.00;;;;;;5877236;24;20040;-83
2021/12/28 14:37:47;;;;;;;4.50;1.38;;;9.70;93.10;;;;;;5867214;24;20022;-81
2021/12/28 14:40:31;;;;;;;5.05;1.30;;;9.70;93.20;;;;;;5868974;24;20121;-82
2021/12/28 14:43:07;;;;;;;6.03;1.25;;;9.60;93.20;;;;;;5923417;24;20013;-82
2021/12/28 14:45:35;;;;;;;6.72;1.65;;;9.60;93.20;;;;;;5891533;23;20366;-83
2021/12/28 14:48:01;;;;;;;5.90;1.40;;;9.60;93.20;;;;;;5891448;23;20052;-82
2021/12/28 14:50:31;;;;;;;2.47;1.10;;;9.50;93.10;;;;;;6073053;23;20018;-82
2021/12/28 14:53:00;;;;;;;8.03;1.70;;;9.50;93.10;;;;;;6073386;23;20010;-83
2021/12/28 14:55:30;;;;;;;4.43;1.33;;;9.50;93.10;;;;;;6073569;23;20268;-84
2021/12/28 14:58:02;;;;;;;6.32;1.35;;;9.50;93.10;;;;;;6070467;23;20002;-82
2021/12/28 15:00:50;;;;;;;5.13;1.55;;;9.50;93.10;;;;;;6088997;23;20085;-81